sensor_id;sensor_type;location;lat;lon;timestamp;pressure;altitude;pressure_sealevel;temperature;humidity
84994;BME280;75309;44.830;20.460;2024-01-15T00:01:04;99985.10;;;4.95;61.03
84994;BME280;75309;44.830;20.460;2024-01-15T00:03:52;99982.60;;;4.96;60.73
84994;BME280;75309;44.830;20.460;2024-01-15T00:06:21;99982.14;;;4.99;60.40
84994;BME280;75309;44.830;20.460;2024-01-15T00:08:49;99978.74;;;5.02;60.40
84994;BME280;75309;44.830;20.460;2024-01-15T00:11:17;99978.67;;;5.06;60.17
84994;BME280;75309;44.830;20.460;2024-01-15T00:13:46;99979.32;;;5.12;60.00
84994;BME280;75309;44.830;20.460;2024-01-15T00:16:15;99969.77;;;5.16;59.84
84994;BME280;75309;44.830;20.460;2024-01-15T00:18:43;99969.12;;;5.23;59.65
84994;BME280;75309;44.830;20.460;2024-01-15T00:21:11;99967.44;;;5.32;59.60
84994;BME280;75309;44.830;20.460;2024-01-15T00:23:43;99965.94;;;5.41;59.33
84994;BME280;75309;44.830;20.460;2024-01-15T00:26:14;99969.41;;;5.51;59.16
84994;BME280;75309;44.830;20.460;2024-01-15T00:28:43;99963.83;;;5.60;58.87
84994;BME280;75309;44.830;20.460;2024-01-15T00:31:12;99963.30;;;5.70;58.83
84994;BME280;75309;44.830;20.460;2024-01-15T00:33:40;99967.06;;;5.79;58.59
84994;BME280;75309;44.830;20.460;2024-01-15T00:36:09;99968.50;;;5.86;58.46
84994;BME280;75309;44.830;20.460;2024-01-15T00:38:37;99967.48;;;5.92;58.13
84994;BME280;75309;44.830;20.460;2024-01-15T00:41:05;99963.70;;;5.98;58.04
84994;BME280;75309;44.830;20.460;2024-01-15T00:43:34;99958.36;;;6.02;57.95
84994;BME280;75309;44.830;20.460;2024-01-15T00:46:02;99955.84;;;6.06;57.74
84994;BME280;75309;44.830;20.460;2024-01-15T00:48:31;99951.83;;;6.10;57.67
84994;BME280;75309;44.830;20.460;2024-01-15T00:51:00;99953.23;;;6.14;57.55
84994;BME280;75309;44.830;20.460;2024-01-15T00:53:28;99943.85;;;6.17;57.51
84994;BME280;75309;44.830;20.460;2024-01-15T00:55:56;99942.16;;;6.20;57.37
84994;BME280;75309;44.830;20.460;2024-01-15T00:58:25;99934.51;;;6.23;57.27
84994;BME280;75309;44.830;20.460;2024-01-15T01:00:53;99932.96;;;6.26;57.11
84994;BME280;75309;44.830;20.460;2024-01-15T01:03:21;99931.90;;;6.29;57.08
84994;BME280;75309;44.830;20.460;2024-01-15T01:05:50;99932.23;;;6.32;57.01
84994;BME280;75309;44.830;20.460;2024-01-15T01:08:18;99938.02;;;6.35;56.93
84994;BME280;75309;44.830;20.460;2024-01-15T01:10:51;99935.98;;;6.38;56.94
84994;BME280;75309;44.830;20.460;2024-01-15T01:13:20;99938.95;;;6.39;56.86
84994;BME280;75309;44.830;20.460;2024-01-15T01:15:48;99935.44;;;6.40;56.83
84994;BME280;75309;44.830;20.460;2024-01-15T01:18:16;99931.55;;;6.41;56.77
84994;BME280;75309;44.830;20.460;2024-01-15T01:20:47;99931.75;;;6.41;56.74
84994;BME280;75309;44.830;20.460;2024-01-15T01:23:15;99928.52;;;6.42;56.74
84994;BME280;75309;44.830;20.460;2024-01-15T01:25:44;99924.70;;;6.40;56.69
84994;BME280;75309;44.830;20.460;2024-01-15T01:28:13;99919.18;;;6.39;56.73
84994;BME280;75309;44.830;20.460;2024-01-15T01:30:40;99917.90;;;6.37;56.71
84994;BME280;75309;44.830;20.460;2024-01-15T01:33:09;99914.21;;;6.35;56.54
84994;BME280;75309;44.830;20.460;2024-01-15T01:35:37;99910.20;;;6.34;56.61
84994;BME280;75309;44.830;20.460;2024-01-15T01:38:05;99907.23;;;6.32;56.60
84994;BME280;75309;44.830;20.460;2024-01-15T01:40:33;99909.34;;;6.30;56.54
84994;BME280;75309;44.830;20.460;2024-01-15T01:43:03;99907.35;;;6.28;56.67
84994;BME280;75309;44.830;20.460;2024-01-15T01:45:31;99905.22;;;6.26;56.76
84994;BME280;75309;44.830;20.460;2024-01-15T01:48:00;99905.02;;;6.25;56.80
84994;BME280;75309;44.830;20.460;2024-01-15T01:50:31;99900.73;;;6.25;56.69
84994;BME280;75309;44.830;20.460;2024-01-15T01:53:01;99896.29;;;6.24;56.79
84994;BME280;75309;44.830;20.460;2024-01-15T01:55:32;99894.36;;;6.23;56.70
84994;BME280;75309;44.830;20.460;2024-01-15T01:58:02;99887.02;;;6.22;56.74
84994;BME280;75309;44.830;20.460;2024-01-15T02:00:34;99887.35;;;6.22;56.89
84994;BME280;75309;44.830;20.460;2024-01-15T02:03:03;99882.52;;;6.21;56.81
84994;BME280;75309;44.830;20.460;2024-01-15T02:05:31;99875.55;;;6.22;56.80
84994;BME280;75309;44.830;20.460;2024-01-15T02:07:59;99869.20;;;6.21;56.84
84994;BME280;75309;44.830;20.460;2024-01-15T02:10:30;99860.67;;;6.20;56.87
84994;BME280;75309;44.830;20.460;2024-01-15T02:12:58;99855.40;;;6.20;56.79
84994;BME280;75309;44.830;20.460;2024-01-15T02:15:26;99853.88;;;6.20;56.83
84994;BME280;75309;44.830;20.460;2024-01-15T02:17:57;99843.35;;;6.21;56.70
84994;BME280;75309;44.830;20.460;2024-01-15T02:20:26;99847.56;;;6.20;56.60
84994;BME280;75309;44.830;20.460;2024-01-15T02:22:54;99848.09;;;6.20;56.61
84994;BME280;75309;44.830;20.460;2024-01-15T02:25:23;99845.23;;;6.21;56.71
84994;BME280;75309;44.830;20.460;2024-01-15T02:27:51;99839.38;;;6.20;56.62
84994;BME280;75309;44.830;20.460;2024-01-15T02:30:19;99834.73;;;6.19;56.53
84994;BME280;75309;44.830;20.460;2024-01-15T02:32:48;99829.23;;;6.18;56.62
84994;BME280;75309;44.830;20.460;2024-01-15T02:35:16;99822.23;;;6.17;56.65
84994;BME280;75309;44.830;20.460;2024-01-15T02:37:45;99814.61;;;6.18;56.63
84994;BME280;75309;44.830;20.460;2024-01-15T02:40:13;99807.27;;;6.18;56.68
84994;BME280;75309;44.830;20.460;2024-01-15T02:42:41;99805.09;;;6.18;56.72
84994;BME280;75309;44.830;20.460;2024-01-15T02:45:09;99802.70;;;6.18;56.71
84994;BME280;75309;44.830;20.460;2024-01-15T02:47:37;99801.89;;;6.19;56.72
84994;BME280;75309;44.830;20.460;2024-01-15T02:50:06;99798.02;;;6.19;56.72
84994;BME280;75309;44.830;20.460;2024-01-15T02:52:34;99793.34;;;6.21;56.68
84994;BME280;75309;44.830;20.460;2024-01-15T02:55:03;99789.16;;;6.22;56.69
84994;BME280;75309;44.830;20.460;2024-01-15T02:57:30;99784.33;;;6.24;56.72
84994;BME280;75309;44.830;20.460;2024-01-15T02:59:59;99777.40;;;6.25;56.64
84994;BME280;75309;44.830;20.460;2024-01-15T03:02:27;99772.57;;;6.28;56.64
84994;BME280;75309;44.830;20.460;2024-01-15T03:04:55;99772.61;;;6.29;56.57
84994;BME280;75309;44.830;20.460;2024-01-15T03:07:23;99768.27;;;6.30;56.57
84994;BME280;75309;44.830;20.460;2024-01-15T03:09:51;99766.49;;;6.32;56.57
84994;BME280;75309;44.830;20.460;2024-01-15T03:12:19;99760.95;;;6.33;56.48
84994;BME280;75309;44.830;20.460;2024-01-15T03:14:47;99754.94;;;6.36;56.38
84994;BME280;75309;44.830;20.460;2024-01-15T03:17:15;99745.36;;;6.38;56.38
84994;BME280;75309;44.830;20.460;2024-01-15T03:19:43;99740.02;;;6.40;56.29
84994;BME280;75309;44.830;20.460;2024-01-15T03:22:12;99731.05;;;6.41;56.17
84994;BME280;75309;44.830;20.460;2024-01-15T03:24:40;99725.92;;;6.44;56.09
84994;BME280;75309;44.830;20.460;2024-01-15T03:27:08;99726.36;;;6.46;56.04
84994;BME280;75309;44.830;20.460;2024-01-15T03:29:36;99723.24;;;6.48;56.06
84994;BME280;75309;44.830;20.460;2024-01-15T03:32:04;99720.31;;;6.51;55.94
84994;BME280;75309;44.830;20.460;2024-01-15T03:34:32;99711.54;;;6.52;55.86
84994;BME280;75309;44.830;20.460;2024-01-15T03:37:00;99706.81;;;6.53;55.89
84994;BME280;75309;44.830;20.460;2024-01-15T03:39:28;99702.89;;;6.53;55.92
84994;BME280;75309;44.830;20.460;2024-01-15T03:41:57;99700.86;;;6.54;55.87
84994;BME280;75309;44.830;20.460;2024-01-15T03:44:25;99697.48;;;6.54;55.85
84994;BME280;75309;44.830;20.460;2024-01-15T03:46:53;99694.50;;;6.52;55.74
84994;BME280;75309;44.830;20.460;2024-01-15T03:49:21;99686.63;;;6.51;55.88
84994;BME280;75309;44.830;20.460;2024-01-15T03:51:49;99682.35;;;6.51;55.96
84994;BME280;75309;44.830;20.460;2024-01-15T03:54:17;99677.59;;;6.51;55.87
84994;BME280;75309;44.830;20.460;2024-01-15T03:56:47;99674.71;;;6.52;55.86
84994;BME280;75309;44.830;20.460;2024-01-15T03:59:15;99670.14;;;6.52;55.88
84994;BME280;75309;44.830;20.460;2024-01-15T04:01:48;99662.15;;;6.52;55.85
84994;BME280;75309;44.830;20.460;2024-01-15T04:04:17;99662.40;;;6.54;55.74
84994;BME280;75309;44.830;20.460;2024-01-15T04:06:46;99656.74;;;6.56;55.90
84994;BME280;75309;44.830;20.460;2024-01-15T04:09:15;99657.23;;;6.59;55.94
84994;BME280;75309;44.830;20.460;2024-01-15T04:11:43;99658.10;;;6.60;56.25
84994;BME280;75309;44.830;20.460;2024-01-15T04:14:11;99655.90;;;6.53;56.50
84994;BME280;75309;44.830;20.460;2024-01-15T04:16:39;99658.58;;;6.49;56.65
84994;BME280;75309;44.830;20.460;2024-01-15T04:19:07;99653.09;;;6.44;56.58
84994;BME280;75309;44.830;20.460;2024-01-15T04:21:35;99651.15;;;6.39;56.62
84994;BME280;75309;44.830;20.460;2024-01-15T04:24:04;99651.68;;;6.36;56.72
84994;BME280;75309;44.830;20.460;2024-01-15T04:26:32;99653.97;;;6.34;56.72
84994;BME280;75309;44.830;20.460;2024-01-15T04:29:00;99647.68;;;6.31;56.78
84994;BME280;75309;44.830;20.460;2024-01-15T04:31:28;99640.48;;;6.27;57.22
84994;BME280;75309;44.830;20.460;2024-01-15T04:33:57;99634.27;;;6.21;57.23
84994;BME280;75309;44.830;20.460;2024-01-15T04:36:25;99627.95;;;6.17;57.29
84994;BME280;75309;44.830;20.460;2024-01-15T04:38:53;99626.84;;;6.16;57.43
84994;BME280;75309;44.830;20.460;2024-01-15T04:41:22;99623.83;;;6.13;57.57
84994;BME280;75309;44.830;20.460;2024-01-15T04:43:50;99615.75;;;6.12;57.58
84994;BME280;75309;44.830;20.460;2024-01-15T04:46:18;99615.64;;;6.13;57.48
84994;BME280;75309;44.830;20.460;2024-01-15T04:48:47;99617.53;;;6.17;57.51
84994;BME280;75309;44.830;20.460;2024-01-15T04:51:15;99617.87;;;6.20;57.38
84994;BME280;75309;44.830;20.460;2024-01-15T04:53:44;99617.27;;;6.21;57.82
84994;BME280;75309;44.830;20.460;2024-01-15T04:56:12;99618.39;;;6.20;57.93
84994;BME280;75309;44.830;20.460;2024-01-15T04:58:40;99617.23;;;6.18;58.12
84994;BME280;75309;44.830;20.460;2024-01-15T05:01:08;99615.16;;;6.14;58.33
84994;BME280;75309;44.830;20.460;2024-01-15T05:03:37;99612.62;;;6.10;58.43
84994;BME280;75309;44.830;20.460;2024-01-15T05:06:05;99611.58;;;6.06;58.39
84994;BME280;75309;44.830;20.460;2024-01-15T05:08:34;99609.83;;;6.05;58.33
84994;BME280;75309;44.830;20.460;2024-01-15T05:11:02;99608.98;;;6.02;59.05
84994;BME280;75309;44.830;20.460;2024-01-15T05:13:33;99604.52;;;5.95;58.79
84994;BME280;75309;44.830;20.460;2024-01-15T05:16:02;99602.73;;;5.87;58.95
84994;BME280;75309;44.830;20.460;2024-01-15T05:18:33;99599.96;;;5.82;59.09
84994;BME280;75309;44.830;20.460;2024-01-15T05:21:01;99599.25;;;5.75;59.30
84994;BME280;75309;44.830;20.460;2024-01-15T05:23:34;99598.25;;;5.65;59.19
84994;BME280;75309;44.830;20.460;2024-01-15T05:26:02;99606.13;;;5.53;59.31
84994;BME280;75309;44.830;20.460;2024-01-15T05:28:30;99608.30;;;5.46;59.29
84994;BME280;75309;44.830;20.460;2024-01-15T05:30:59;99605.88;;;5.42;59.06
84994;BME280;75309;44.830;20.460;2024-01-15T05:33:28;99612.35;;;5.42;59.06
84994;BME280;75309;44.830;20.460;2024-01-15T05:35:56;99614.11;;;5.46;59.05
84994;BME280;75309;44.830;20.460;2024-01-15T05:38:24;99617.71;;;5.47;59.24
84994;BME280;75309;44.830;20.460;2024-01-15T05:40:52;99618.36;;;5.37;59.38
84994;BME280;75309;44.830;20.460;2024-01-15T05:43:20;99613.56;;;5.36;59.53
84994;BME280;75309;44.830;20.460;2024-01-15T05:45:49;99608.45;;;5.35;59.64
84994;BME280;75309;44.830;20.460;2024-01-15T05:48:17;99609.70;;;5.37;59.75
84994;BME280;75309;44.830;20.460;2024-01-15T05:50:45;99608.95;;;5.39;59.88
84994;BME280;75309;44.830;20.460;2024-01-15T05:53:13;99606.60;;;5.39;59.83
84994;BME280;75309;44.830;20.460;2024-01-15T05:55:41;99601.75;;;5.41;59.80
84994;BME280;75309;44.830;20.460;2024-01-15T05:58:09;99587.31;;;5.47;59.48
84994;BME280;75309;44.830;20.460;2024-01-15T06:00:37;99584.23;;;5.57;59.11
84994;BME280;75309;44.830;20.460;2024-01-15T06:03:06;99585.49;;;5.68;58.86
84994;BME280;75309;44.830;20.460;2024-01-15T06:05:34;99577.08;;;5.81;58.50
84994;BME280;75309;44.830;20.460;2024-01-15T06:08:03;99571.29;;;5.90;58.23
84994;BME280;75309;44.830;20.460;2024-01-15T06:10:31;99567.17;;;6.00;58.10
84994;BME280;75309;44.830;20.460;2024-01-15T06:13:00;99564.20;;;6.08;57.76
84994;BME280;75309;44.830;20.460;2024-01-15T06:15:28;99558.77;;;6.16;57.57
84994;BME280;75309;44.830;20.460;2024-01-15T06:17:56;99561.01;;;6.23;57.35
84994;BME280;75309;44.830;20.460;2024-01-15T06:20:24;99559.98;;;6.30;57.36
84994;BME280;75309;44.830;20.460;2024-01-15T06:22:53;99554.71;;;6.37;56.96
84994;BME280;75309;44.830;20.460;2024-01-15T06:25:21;99547.98;;;6.42;56.92
84994;BME280;75309;44.830;20.460;2024-01-15T06:27:49;99546.37;;;6.48;56.81
84994;BME280;75309;44.830;20.460;2024-01-15T06:30:17;99545.70;;;6.52;56.60
84994;BME280;75309;44.830;20.460;2024-01-15T06:32:45;99542.27;;;6.55;56.57
84994;BME280;75309;44.830;20.460;2024-01-15T06:35:13;99535.50;;;6.59;56.51
84994;BME280;75309;44.830;20.460;2024-01-15T06:37:41;99528.20;;;6.64;56.24
84994;BME280;75309;44.830;20.460;2024-01-15T06:40:10;99523.11;;;6.68;56.26
84994;BME280;75309;44.830;20.460;2024-01-15T06:42:38;99518.85;;;6.71;56.18
84994;BME280;75309;44.830;20.460;2024-01-15T06:45:06;99516.29;;;6.75;55.89
84994;BME280;75309;44.830;20.460;2024-01-15T06:47:35;99514.14;;;6.80;55.82
84994;BME280;75309;44.830;20.460;2024-01-15T06:50:03;99519.77;;;6.84;55.60
84994;BME280;75309;44.830;20.460;2024-01-15T06:52:32;99519.64;;;6.88;55.37
84994;BME280;75309;44.830;20.460;2024-01-15T06:55:00;99520.35;;;6.93;55.29
84994;BME280;75309;44.830;20.460;2024-01-15T06:57:28;99519.59;;;6.99;55.14
84994;BME280;75309;44.830;20.460;2024-01-15T06:59:56;99517.08;;;7.04;54.99
84994;BME280;75309;44.830;20.460;2024-01-15T07:02:25;99527.09;;;7.11;54.83
84994;BME280;75309;44.830;20.460;2024-01-15T07:04:54;99532.11;;;7.17;54.50
84994;BME280;75309;44.830;20.460;2024-01-15T07:07:22;99538.31;;;7.22;54.49
84994;BME280;75309;44.830;20.460;2024-01-15T07:09:50;99534.98;;;7.27;54.53
84994;BME280;75309;44.830;20.460;2024-01-15T07:12:20;99535.35;;;7.32;54.47
84994;BME280;75309;44.830;20.460;2024-01-15T07:14:48;99537.06;;;7.36;54.18
84994;BME280;75309;44.830;20.460;2024-01-15T07:17:16;99536.56;;;7.41;54.25
84994;BME280;75309;44.830;20.460;2024-01-15T07:19:44;99533.48;;;7.44;54.07
84994;BME280;75309;44.830;20.460;2024-01-15T07:22:12;99533.44;;;7.47;53.98
84994;BME280;75309;44.830;20.460;2024-01-15T07:24:40;99527.77;;;7.50;53.82
84994;BME280;75309;44.830;20.460;2024-01-15T07:27:09;99530.63;;;7.53;53.83
84994;BME280;75309;44.830;20.460;2024-01-15T07:29:37;99528.16;;;7.55;53.58
84994;BME280;75309;44.830;20.460;2024-01-15T07:32:05;99528.77;;;7.58;53.95
84994;BME280;75309;44.830;20.460;2024-01-15T07:34:35;99520.30;;;7.59;53.77
84994;BME280;75309;44.830;20.460;2024-01-15T07:37:03;99519.86;;;7.61;53.72
84994;BME280;75309;44.830;20.460;2024-01-15T07:39:31;99525.71;;;7.62;53.72
84994;BME280;75309;44.830;20.460;2024-01-15T07:41:59;99518.45;;;7.63;53.47
84994;BME280;75309;44.830;20.460;2024-01-15T07:44:29;99516.15;;;7.66;53.24
84994;BME280;75309;44.830;20.460;2024-01-15T07:46:58;99513.34;;;7.68;53.37
84994;BME280;75309;44.830;20.460;2024-01-15T07:49:27;99515.85;;;7.71;53.29
84994;BME280;75309;44.830;20.460;2024-01-15T07:51:56;99516.83;;;7.74;53.24
84994;BME280;75309;44.830;20.460;2024-01-15T07:54:24;99518.35;;;7.77;52.97
84994;BME280;75309;44.830;20.460;2024-01-15T07:56:58;99518.29;;;7.80;52.90
84994;BME280;75309;44.830;20.460;2024-01-15T07:59:27;99524.21;;;7.84;52.97
84994;BME280;75309;44.830;20.460;2024-01-15T08:01:55;99522.81;;;7.87;52.84
84994;BME280;75309;44.830;20.460;2024-01-15T08:04:24;99524.70;;;7.91;52.94
84994;BME280;75309;44.830;20.460;2024-01-15T08:06:52;99528.92;;;7.94;52.88
84994;BME280;75309;44.830;20.460;2024-01-15T08:09:20;99536.92;;;7.98;52.83
84994;BME280;75309;44.830;20.460;2024-01-15T08:11:49;99535.75;;;8.03;52.88
84994;BME280;75309;44.830;20.460;2024-01-15T08:14:18;99533.65;;;8.05;52.62
84994;BME280;75309;44.830;20.460;2024-01-15T08:16:47;99533.98;;;8.10;52.57
84994;BME280;75309;44.830;20.460;2024-01-15T08:19:15;99535.34;;;8.13;52.50
84994;BME280;75309;44.830;20.460;2024-01-15T08:21:43;99535.33;;;8.17;52.49
84994;BME280;75309;44.830;20.460;2024-01-15T08:24:11;99534.68;;;8.23;52.55
84994;BME280;75309;44.830;20.460;2024-01-15T08:26:40;99540.60;;;8.30;52.43
84994;BME280;75309;44.830;20.460;2024-01-15T08:29:08;99547.94;;;8.35;52.60
84994;BME280;75309;44.830;20.460;2024-01-15T08:31:36;99543.70;;;8.35;52.94
84994;BME280;75309;44.830;20.460;2024-01-15T08:34:06;99534.63;;;8.39;53.04
84994;BME280;75309;44.830;20.460;2024-01-15T08:36:34;99528.28;;;8.43;52.60
84994;BME280;75309;44.830;20.460;2024-01-15T08:39:04;99527.44;;;8.46;52.79
84994;BME280;75309;44.830;20.460;2024-01-15T08:41:33;99523.10;;;8.49;53.05
84994;BME280;75309;44.830;20.460;2024-01-15T08:44:01;99524.27;;;8.44;53.30
84994;BME280;75309;44.830;20.460;2024-01-15T08:46:30;99519.86;;;8.37;53.31
84994;BME280;75309;44.830;20.460;2024-01-15T08:48:58;99516.24;;;8.31;52.88
84994;BME280;75309;44.830;20.460;2024-01-15T08:51:26;99516.20;;;8.30;53.29
84994;BME280;75309;44.830;20.460;2024-01-15T08:53:56;99514.29;;;8.25;54.41
84994;BME280;75309;44.830;20.460;2024-01-15T08:56:25;99514.98;;;8.16;54.49
84994;BME280;75309;44.830;20.460;2024-01-15T08:58:56;99519.00;;;8.07;54.44
84994;BME280;75309;44.830;20.460;2024-01-15T09:01:28;99517.23;;;8.00;54.44
84994;BME280;75309;44.830;20.460;2024-01-15T09:03:57;99517.02;;;7.99;54.38
84994;BME280;75309;44.830;20.460;2024-01-15T09:06:25;99509.98;;;7.99;54.54
84994;BME280;75309;44.830;20.460;2024-01-15T09:08:54;99515.11;;;7.94;54.59
84994;BME280;75309;44.830;20.460;2024-01-15T09:11:22;99515.76;;;7.93;54.65
84994;BME280;75309;44.830;20.460;2024-01-15T09:13:50;99518.04;;;7.91;54.67
84994;BME280;75309;44.830;20.460;2024-01-15T09:16:20;99525.34;;;7.86;54.87
84994;BME280;75309;44.830;20.460;2024-01-15T09:18:48;99528.05;;;7.86;55.07
84994;BME280;75309;44.830;20.460;2024-01-15T09:21:17;99529.55;;;7.84;55.21
84994;BME280;75309;44.830;20.460;2024-01-15T09:23:45;99530.27;;;7.86;55.25
84994;BME280;75309;44.830;20.460;2024-01-15T09:26:14;99534.09;;;7.87;55.19
84994;BME280;75309;44.830;20.460;2024-01-15T09:28:41;99532.80;;;7.89;55.33
84994;BME280;75309;44.830;20.460;2024-01-15T09:31:10;99529.27;;;7.86;55.19
84994;BME280;75309;44.830;20.460;2024-01-15T09:33:38;99526.22;;;7.87;55.16
84994;BME280;75309;44.830;20.460;2024-01-15T09:36:06;99524.52;;;7.91;55.12
84994;BME280;75309;44.830;20.460;2024-01-15T09:38:35;99521.44;;;7.94;55.03
84994;BME280;75309;44.830;20.460;2024-01-15T09:41:04;99517.13;;;7.93;55.07
84994;BME280;75309;44.830;20.460;2024-01-15T09:43:36;99515.83;;;7.91;55.08
84994;BME280;75309;44.830;20.460;2024-01-15T09:46:07;99519.57;;;7.87;55.18
84994;BME280;75309;44.830;20.460;2024-01-15T09:48:36;99517.20;;;7.87;55.23
84994;BME280;75309;44.830;20.460;2024-01-15T09:51:07;99519.23;;;7.90;55.33
84994;BME280;75309;44.830;20.460;2024-01-15T09:53:36;99515.35;;;7.92;55.39
84994;BME280;75309;44.830;20.460;2024-01-15T09:56:05;99516.39;;;7.92;55.26
84994;BME280;75309;44.830;20.460;2024-01-15T09:58:34;99514.67;;;7.92;55.24
84994;BME280;75309;44.830;20.460;2024-01-15T10:01:04;99509.95;;;7.85;55.21
84994;BME280;75309;44.830;20.460;2024-01-15T10:03:35;99506.41;;;7.78;55.45
84994;BME280;75309;44.830;20.460;2024-01-15T10:06:04;99500.34;;;7.75;55.53
84994;BME280;75309;44.830;20.460;2024-01-15T10:08:36;99500.01;;;7.71;55.77
84994;BME280;75309;44.830;20.460;2024-01-15T10:11:07;99501.67;;;7.67;55.93
84994;BME280;75309;44.830;20.460;2024-01-15T10:13:36;99500.69;;;7.55;56.30
84994;BME280;75309;44.830;20.460;2024-01-15T10:16:07;99498.84;;;7.39;57.21
84994;BME280;75309;44.830;20.460;2024-01-15T10:18:35;99494.49;;;7.38;56.66
84994;BME280;75309;44.830;20.460;2024-01-15T10:21:08;99490.47;;;7.39;56.42
84994;BME280;75309;44.830;20.460;2024-01-15T10:23:36;99487.59;;;7.39;56.45
84994;BME280;75309;44.830;20.460;2024-01-15T10:26:04;99484.31;;;7.39;56.54
84994;BME280;75309;44.830;20.460;2024-01-15T10:28:32;99483.42;;;7.42;56.53
84994;BME280;75309;44.830;20.460;2024-01-15T10:31:02;99475.24;;;7.46;56.58
84994;BME280;75309;44.830;20.460;2024-01-15T10:33:30;99469.73;;;7.48;56.54
84994;BME280;75309;44.830;20.460;2024-01-15T10:36:00;99466.77;;;7.47;56.70
84994;BME280;75309;44.830;20.460;2024-01-15T10:38:28;99466.31;;;7.48;56.74
84994;BME280;75309;44.830;20.460;2024-01-15T10:40:57;99464.98;;;7.53;56.54
84994;BME280;75309;44.830;20.460;2024-01-15T10:43:25;99462.97;;;7.58;56.56
84994;BME280;75309;44.830;20.460;2024-01-15T10:45:57;99456.79;;;7.61;56.40
84994;BME280;75309;44.830;20.460;2024-01-15T10:48:26;99454.11;;;7.62;56.58
84994;BME280;75309;44.830;20.460;2024-01-15T10:50:57;99454.67;;;7.63;56.73
84994;BME280;75309;44.830;20.460;2024-01-15T10:53:26;99450.79;;;7.65;56.73
84994;BME280;75309;44.830;20.460;2024-01-15T10:55:56;99446.59;;;7.67;56.72
84994;BME280;75309;44.830;20.460;2024-01-15T10:58:27;99443.40;;;7.67;56.88
84994;BME280;75309;44.830;20.460;2024-01-15T11:00:56;99445.77;;;7.71;57.07
84994;BME280;75309;44.830;20.460;2024-01-15T11:03:27;99449.83;;;7.79;57.02
84994;BME280;75309;44.830;20.460;2024-01-15T11:05:56;99452.23;;;7.88;57.49
84994;BME280;75309;44.830;20.460;2024-01-15T11:08:24;99455.95;;;7.95;57.20
84994;BME280;75309;44.830;20.460;2024-01-15T11:10:53;99450.28;;;8.03;57.03
84994;BME280;75309;44.830;20.460;2024-01-15T11:13:40;99446.41;;;8.09;56.85
84994;BME280;75309;44.830;20.460;2024-01-15T11:16:10;99447.83;;;8.19;56.69
84994;BME280;75309;44.830;20.460;2024-01-15T11:18:41;99446.39;;;8.26;55.54
84994;BME280;75309;44.830;20.460;2024-01-15T11:29:02;99442.98;;;8.26;55.89
84994;BME280;75309;44.830;20.460;2024-01-15T11:34:09;99434.02;;;8.33;55.46
84994;BME280;75309;44.830;20.460;2024-01-15T11:42:02;99434.13;;;8.22;55.28
84994;BME280;75309;44.830;20.460;2024-01-15T11:44:32;99433.84;;;8.15;55.10
84994;BME280;75309;44.830;20.460;2024-01-15T11:47:00;99429.11;;;8.12;55.30
84994;BME280;75309;44.830;20.460;2024-01-15T11:49:59;99422.17;;;8.09;55.23
84994;BME280;75309;44.830;20.460;2024-01-15T11:52:38;99418.80;;;8.05;55.03
84994;BME280;75309;44.830;20.460;2024-01-15T11:55:19;99414.42;;;8.07;55.18
84994;BME280;75309;44.830;20.460;2024-01-15T11:57:54;99408.19;;;8.09;55.07
84994;BME280;75309;44.830;20.460;2024-01-15T12:00:23;99401.50;;;8.08;54.85
84994;BME280;75309;44.830;20.460;2024-01-15T12:02:52;99404.17;;;8.02;55.20
84994;BME280;75309;44.830;20.460;2024-01-15T12:05:21;99401.63;;;7.98;55.40
84994;BME280;75309;44.830;20.460;2024-01-15T12:07:50;99403.09;;;7.92;55.43
84994;BME280;75309;44.830;20.460;2024-01-15T12:10:19;99398.05;;;7.89;55.52
84994;BME280;75309;44.830;20.460;2024-01-15T12:12:59;99392.38;;;7.92;55.65
84994;BME280;75309;44.830;20.460;2024-01-15T12:15:31;99395.11;;;7.97;55.73
84994;BME280;75309;44.830;20.460;2024-01-15T12:18:01;99390.21;;;7.99;56.09
84994;BME280;75309;44.830;20.460;2024-01-15T12:20:31;99387.10;;;7.98;56.65
84994;BME280;75309;44.830;20.460;2024-01-15T12:23:00;99375.63;;;7.96;56.93
84994;BME280;75309;44.830;20.460;2024-01-15T12:25:32;99373.75;;;7.97;57.16
84994;BME280;75309;44.830;20.460;2024-01-15T12:28:02;99373.01;;;7.94;57.21
84994;BME280;75309;44.830;20.460;2024-01-15T12:30:34;99364.03;;;7.96;57.66
84994;BME280;75309;44.830;20.460;2024-01-15T12:33:05;99357.79;;;7.98;57.32
84994;BME280;75309;44.830;20.460;2024-01-15T12:35:34;99352.80;;;8.02;57.32
84994;BME280;75309;44.830;20.460;2024-01-15T12:38:05;99349.52;;;8.06;57.50
84994;BME280;75309;44.830;20.460;2024-01-15T12:40:35;99348.56;;;8.07;57.43
84994;BME280;75309;44.830;20.460;2024-01-15T12:43:05;99345.52;;;8.08;57.59
84994;BME280;75309;44.830;20.460;2024-01-15T12:45:36;99341.64;;;8.09;57.85
84994;BME280;75309;44.830;20.460;2024-01-15T12:48:06;99340.28;;;8.09;57.96
84994;BME280;75309;44.830;20.460;2024-01-15T12:50:35;99338.02;;;8.08;57.89
84994;BME280;75309;44.830;20.460;2024-01-15T12:53:04;99332.67;;;8.07;58.03
84994;BME280;75309;44.830;20.460;2024-01-15T12:55:32;99327.13;;;8.04;58.30
84994;BME280;75309;44.830;20.460;2024-01-15T12:58:00;99324.52;;;8.03;58.46
84994;BME280;75309;44.830;20.460;2024-01-15T13:00:29;99318.10;;;8.00;58.69
84994;BME280;75309;44.830;20.460;2024-01-15T13:02:58;99315.35;;;8.00;58.73
84994;BME280;75309;44.830;20.460;2024-01-15T13:05:29;99312.11;;;8.00;58.44
84994;BME280;75309;44.830;20.460;2024-01-15T13:07:59;99307.68;;;8.00;58.59
84994;BME280;75309;44.830;20.460;2024-01-15T13:10:27;99296.50;;;8.02;58.50
84994;BME280;75309;44.830;20.460;2024-01-15T13:13:00;99284.54;;;8.06;58.33
84994;BME280;75309;44.830;20.460;2024-01-15T13:15:29;99277.88;;;8.11;58.30
84994;BME280;75309;44.830;20.460;2024-01-15T13:17:59;99273.25;;;8.15;58.22
84994;BME280;75309;44.830;20.460;2024-01-15T13:20:27;99276.17;;;8.20;58.12
84994;BME280;75309;44.830;20.460;2024-01-15T13:22:55;99274.15;;;8.26;58.16
84994;BME280;75309;44.830;20.460;2024-01-15T13:25:23;99274.37;;;8.33;58.21